Time;durP1;ratioP1;P1;durP2;ratioP2;P2;SDS_P1;SDS_P2;PMS_P1;PMS_P2;Temp;Humidity;BMP_temperature;BMP_pressure;BME280_temperature;BME280_humidity;BME280_pressure;Samples;Min_cycle;Max_cycle;Signal;HPM_P1;HPM_P2
2021/12/03 00:00:42;;;;;;;4.45;1.75;;;;;;;3.04;100.00;99507.03;4986103;28;20484;-91
2021/12/03 00:03:10;;;;;;;8.18;3.10;;;;;;;2.99;100.00;99504.59;4992702;28;20218;-91
2021/12/03 00:05:37;;;;;;;9.27;2.05;;;;;;;2.97;100.00;99490.81;4994212;28;20061;-91
2021/12/03 00:08:05;;;;;;;7.72;1.70;;;;;;;2.95;100.00;99473.66;4993186;28;20105;-92
2021/12/03 00:10:32;;;;;;;5.65;2.05;;;;;;;2.85;100.00;99483.38;4992458;28;20054;-92
2021/12/03 00:12:59;;;;;;;7.03;1.80;;;;;;;2.92;100.00;99481.50;4994243;28;20047;-92
2021/12/03 00:15:26;;;;;;;5.20;1.50;;;;;;;2.98;100.00;99469.25;4993953;28;20050;-91
2021/12/03 00:17:54;;;;;;;4.55;1.75;;;;;;;2.76;100.00;99455.19;4992658;28;20051;-92
2021/12/03 00:20:24;;;;;;;9.23;1.80;;;;;;;2.87;100.00;99462.66;4991620;28;20400;-92
2021/12/03 00:22:53;;;;;;;4.90;1.63;;;;;;;2.73;100.00;99419.13;4993229;28;20506;-92
2021/12/03 00:25:20;;;;;;;3.88;1.25;;;;;;;2.95;100.00;99460.75;4993085;28;20416;-92
2021/12/03 00:27:47;;;;;;;4.60;1.50;;;;;;;2.95;100.00;99447.81;4993060;28;20056;-92
2021/12/03 00:30:16;;;;;;;4.57;1.60;;;;;;;2.95;100.00;99448.66;4993554;28;20046;-91
2021/12/03 00:32:45;;;;;;;4.20;1.70;;;;;;;2.90;100.00;99439.31;4983135;28;20050;-92
2021/12/03 00:35:13;;;;;;;3.97;1.75;;;;;;;2.52;100.00;99411.03;4993304;28;20540;-91
2021/12/03 00:37:41;;;;;;;4.82;1.60;;;;;;;2.74;100.00;99410.44;4993000;28;20058;-92
2021/12/03 00:40:14;;;;;;;3.60;1.55;;;;;;;2.83;100.00;99420.53;4992267;28;20054;-91
2021/12/03 00:42:41;;;;;;;3.63;1.50;;;;;;;2.78;100.00;99375.88;4992614;28;20046;-91
2021/12/03 00:45:11;;;;;;;4.80;1.30;;;;;;;2.99;100.00;99398.56;4992569;28;20046;-91
2021/12/03 00:47:40;;;;;;;2.17;1.30;;;;;;;3.15;100.00;99398.13;4985961;28;20055;-92
2021/12/03 00:50:09;;;;;;;2.20;1.17;;;;;;;3.14;100.00;99384.34;5003815;28;20072;-92
2021/12/03 00:52:36;;;;;;;3.05;1.40;;;;;;;3.00;100.00;99376.97;5008002;28;20050;-92
2021/12/03 00:55:05;;;;;;;2.97;1.40;;;;;;;3.14;100.00;99376.59;4988589;28;20043;-91
2021/12/03 00:57:32;;;;;;;3.20;1.20;;;;;;;3.11;100.00;99368.06;4989046;28;20061;-91
2021/12/03 00:59:59;;;;;;;1.33;1.05;;;;;;;3.02;100.00;99370.00;4989095;28;20050;-92
2021/12/03 01:02:26;;;;;;;3.60;1.30;;;;;;;3.06;100.00;99364.75;4990799;28;20065;-91
2021/12/03 01:04:53;;;;;;;2.83;1.25;;;;;;;3.15;100.00;99365.34;4991589;28;20050;-91
2021/12/03 01:07:20;;;;;;;2.92;1.20;;;;;;;2.77;100.00;99325.06;4992102;28;20129;-92
2021/12/03 01:09:47;;;;;;;2.92;1.30;;;;;;;2.92;100.00;99329.81;4992188;28;20051;-92
2021/12/03 01:12:14;;;;;;;3.78;1.58;;;;;;;3.13;100.00;99364.53;4988166;28;20141;-91
2021/12/03 01:14:41;;;;;;;1.85;1.20;;;;;;;3.29;100.00;99364.91;4977966;28;20404;-92
2021/12/03 01:17:08;;;;;;;1.80;1.15;;;;;;;3.14;100.00;99348.13;4973691;28;20055;-92
2021/12/03 01:19:35;;;;;;;5.65;1.50;;;;;;;3.27;100.00;99351.19;4972370;28;20051;-92
2021/12/03 01:22:03;;;;;;;2.85;1.42;;;;;;;3.20;100.00;99354.84;4986473;28;20485;-92
2021/12/03 01:24:30;;;;;;;2.28;1.20;;;;;;;2.98;100.00;99310.69;4978804;28;20046;-92
2021/12/03 01:26:57;;;;;;;4.13;1.40;;;;;;;3.20;100.00;99319.47;4988772;28;20055;-92
2021/12/03 01:29:24;;;;;;;3.50;1.30;;;;;;;3.45;100.00;99323.06;4973620;28;20050;-92
2021/12/03 01:31:53;;;;;;;2.35;1.30;;;;;;;3.40;100.00;99318.06;5002280;28;20499;-92
2021/12/03 01:34:21;;;;;;;3.75;1.58;;;;;;;3.26;100.00;99281.38;4991489;28;20054;-92
2021/12/03 01:36:48;;;;;;;2.67;1.23;;;;;;;3.29;100.00;99289.91;4977011;28;20059;-91
2021/12/03 01:39:15;;;;;;;1.85;1.10;;;;;;;3.40;100.00;99298.19;4977907;28;20133;-91
2021/12/03 01:41:43;;;;;;;4.07;1.70;;;;;;;3.25;100.00;99266.78;4991852;28;20046;-91
2021/12/03 01:44:10;;;;;;;3.53;1.52;;;;;;;3.41;100.00;99265.41;4992080;28;20055;-92
2021/12/03 01:46:38;;;;;;;2.47;1.30;;;;;;;3.39;100.00;99239.56;4991781;28;20050;-92
2021/12/03 01:49:06;;;;;;;3.05;1.30;;;;;;;3.45;100.00;99271.31;4980300;28;20058;-91
2021/12/03 01:51:33;;;;;;;2.55;1.85;;;;;;;3.59;100.00;99275.19;4980558;28;20154;-91
2021/12/03 01:53:59;;;;;;;7.53;1.92;;;;;;;3.26;100.00;99253.81;4987734;28;20066;-92
2021/12/03 01:56:26;;;;;;;3.83;1.55;;;;;;;3.00;100.00;99195.13;4992474;28;20050;-92
2021/12/03 01:58:53;;;;;;;3.38;1.50;;;;;;;3.44;100.00;99236.84;4989840;28;20137;-93
2021/12/03 02:01:27;;;;;;;3.33;1.60;;;;;;;3.25;100.00;99221.06;5003044;28;20404;-92
2021/12/03 02:03:57;;;;;;;3.92;1.80;;;;;;;3.24;100.00;99234.91;4982714;28;20054;-92
2021/12/03 02:06:25;;;;;;;9.18;1.95;;;;;;;3.24;100.00;99229.72;5011298;28;20050;-92
2021/12/03 02:08:53;;;;;;;4.65;1.98;;;;;;;3.08;100.00;99195.75;5009709;28;20050;-91
2021/12/03 02:11:20;;;;;;;6.38;2.17;;;;;;;3.32;100.00;99213.94;4987614;28;20564;-92
2021/12/03 02:13:47;;;;;;;5.38;2.20;;;;;;;3.14;100.00;99195.53;4988540;28;20138;-92
2021/12/03 02:16:16;;;;;;;5.57;2.22;;;;;;;3.17;100.00;99203.19;4988199;28;20412;-92
2021/12/03 02:18:44;;;;;;;5.10;2.08;;;;;;;3.33;100.00;99187.16;5000863;28;20074;-91
2021/12/03 02:21:12;;;;;;;5.10;2.10;;;;;;;3.36;100.00;99192.25;4987852;28;20053;-92
2021/12/03 02:23:40;;;;;;;6.88;2.50;;;;;;;3.18;100.00;99170.41;4975717;28;20047;-92
2021/12/03 02:26:07;;;;;;;5.63;2.25;;;;;;;3.37;100.00;99192.22;4990097;28;20054;-92
2021/12/03 02:28:44;;;;;;;6.45;2.35;;;;;;;3.06;100.00;99150.13;4997786;28;20133;-92
2021/12/03 02:31:13;;;;;;;4.43;1.90;;;;;;;3.34;100.00;99188.88;4986398;28;20050;-92
2021/12/03 02:33:40;;;;;;;5.68;2.33;;;;;;;3.31;100.00;99179.50;4986196;28;20046;-91
2021/12/03 02:36:08;;;;;;;7.93;2.50;;;;;;;3.41;100.00;99156.72;5001861;28;20047;-92
2021/12/03 02:38:35;;;;;;;5.70;2.45;;;;;;;3.55;100.00;99156.25;4989203;28;20054;-91
2021/12/03 02:41:03;;;;;;;6.18;2.63;;;;;;;3.30;100.00;99159.66;4981966;28;20046;-91
2021/12/03 02:43:30;;;;;;;4.63;2.00;;;;;;;3.50;100.00;99150.41;5002526;28;20055;-91
2021/12/03 02:46:02;;;;;;;7.68;2.67;;;;;;;3.40;100.00;99155.88;4990628;28;20038;-92
2021/12/03 02:48:38;;;;;;;7.07;3.10;;;;;;;3.22;100.00;99144.41;4988589;28;20050;-90
2021/12/03 02:51:07;;;;;;;6.13;2.30;;;;;;;3.53;100.00;99140.78;4983019;28;20051;-91
2021/12/03 02:53:35;;;;;;;8.05;2.70;;;;;;;3.36;100.00;99123.22;5001392;28;20054;-91
2021/12/03 02:56:02;;;;;;;5.88;2.20;;;;;;;3.51;100.00;99126.22;5004199;28;20480;-90
2021/12/03 02:58:29;;;;;;;6.13;2.78;;;;;;;3.42;100.00;99127.38;4987888;28;20054;-90
2021/12/03 03:00:56;;;;;;;6.30;2.45;;;;;;;3.48;100.00;99118.56;5005662;28;20209;-90
2021/12/03 03:03:23;;;;;;;6.30;2.13;;;;;;;3.47;100.00;99093.56;4993251;28;20122;-91
2021/12/03 03:05:59;;;;;;;5.85;2.40;;;;;;;3.54;100.00;99108.84;4993911;28;20411;-91
2021/12/03 03:08:27;;;;;;;6.63;2.70;;;;;;;3.39;100.00;99084.31;4993683;28;20503;-91
2021/12/03 03:10:55;;;;;;;7.10;2.10;;;;;;;3.52;100.00;99086.50;4992714;28;20069;-91
2021/12/03 03:13:22;;;;;;;5.55;2.30;;;;;;;3.45;100.00;99087.59;4986352;28;20062;-92
2021/12/03 03:15:51;;;;;;;6.55;2.42;;;;;;;3.31;100.00;99085.50;4986342;28;20050;-92
2021/12/03 03:18:22;;;;;;;6.03;2.28;;;;;;;3.33;100.00;99078.50;5002557;28;20400;-92
2021/12/03 03:20:50;;;;;;;5.55;2.28;;;;;;;3.30;100.00;99076.88;4988459;28;20046;-91
2021/12/03 03:23:19;;;;;;;6.88;2.00;;;;;;;3.16;100.00;99086.88;4984759;28;20050;-92
2021/12/03 03:25:47;;;;;;;7.90;2.97;;;;;;;3.10;100.00;99079.28;4993035;28;20047;-91
2021/12/03 03:28:14;;;;;;;7.38;2.60;;;;;;;3.02;100.00;99106.25;4987274;28;20042;-92
2021/12/03 03:30:44;;;;;;;5.93;2.30;;;;;;;3.30;100.00;99096.75;4991944;28;20046;-92
2021/12/03 03:33:13;;;;;;;5.68;2.28;;;;;;;3.28;100.00;99103.72;4984758;28;20054;-92
2021/12/03 03:35:40;;;;;;;6.22;2.55;;;;;;;3.29;100.00;99095.06;4995552;28;20051;-92
2021/12/03 03:38:08;;;;;;;6.63;2.80;;;;;;;3.33;100.00;99094.03;5003717;28;20042;-92
2021/12/03 03:40:35;;;;;;;5.05;1.80;;;;;;;3.44;100.00;99070.41;4996166;28;20055;-92
2021/12/03 03:43:04;;;;;;;5.40;2.40;;;;;;;3.47;100.00;99072.88;5003819;28;20114;-92
2021/12/03 03:45:31;;;;;;;6.38;2.65;;;;;;;3.40;100.00;99059.31;4993585;28;20404;-92
2021/12/03 03:47:58;;;;;;;6.30;2.50;;;;;;;3.61;100.00;99068.91;4993673;28;20552;-91
2021/12/03 03:50:26;;;;;;;6.55;2.40;;;;;;;3.54;100.00;99066.56;4995747;28;20065;-92
2021/12/03 03:52:55;;;;;;;5.60;2.70;;;;;;;3.51;100.00;99074.47;4992536;28;20058;-92
2021/12/03 03:55:25;;;;;;;5.40;2.20;;;;;;;3.37;100.00;99074.94;4993415;28;20055;-92
2021/12/03 03:57:54;;;;;;;4.88;1.90;;;;;;;3.51;100.00;99082.22;4991719;28;20057;-92
2021/12/03 04:00:27;;;;;;;6.68;1.98;;;;;;;3.57;100.00;99079.41;5005927;28;20062;-91
2021/12/03 04:02:54;;;;;;;7.50;2.20;;;;;;;3.45;100.00;99056.56;4990475;28;20065;-92
2021/12/03 04:05:21;;;;;;;4.63;2.00;;;;;;;3.61;100.00;99074.09;4990411;28;20509;-92
2021/12/03 04:07:48;;;;;;;4.97;2.00;;;;;;;3.55;100.00;99083.81;4993130;28;20047;-91
2021/12/03 04:10:15;;;;;;;5.25;2.40;;;;;;;3.37;100.00;99078.38;4991628;28;20068;-92
2021/12/03 04:12:43;;;;;;;7.18;3.65;;;;;;;3.48;100.00;99085.75;4998417;28;20481;-91
2021/12/03 04:15:12;;;;;;;7.50;3.13;;;;;;;3.39;100.00;99092.09;4990065;28;20043;-91
2021/12/03 04:17:39;;;;;;;9.13;2.78;;;;;;;3.20;100.00;99085.84;4992529;28;20052;-92
2021/12/03 04:20:09;;;;;;;5.40;2.08;;;;;;;3.27;100.00;99070.97;4989692;28;20073;-92
2021/12/03 04:22:36;;;;;;;6.10;2.28;;;;;;;3.15;100.00;99065.34;4989685;28;20054;-92
2021/12/03 04:25:06;;;;;;;5.47;2.10;;;;;;;2.88;100.00;99048.16;4997539;28;20054;-92
2021/12/03 04:27:34;;;;;;;6.18;2.10;;;;;;;3.18;100.00;99074.72;4987924;28;20057;-92
2021/12/03 04:30:03;;;;;;;5.80;1.92;;;;;;;3.23;100.00;99072.81;4983807;28;20391;-92
2021/12/03 04:32:30;;;;;;;6.00;2.40;;;;;;;2.93;100.00;99035.91;4991743;28;20492;-92
2021/12/03 04:34:57;;;;;;;4.95;2.03;;;;;;;3.08;100.00;99042.31;4991652;28;20150;-92
2021/12/03 04:37:24;;;;;;;5.78;2.38;;;;;;;2.93;100.00;99060.03;4977396;28;20149;-92
2021/12/03 04:39:51;;;;;;;6.43;2.20;;;;;;;2.75;100.00;99040.81;4994804;28;20065;-92
2021/12/03 04:42:18;;;;;;;5.05;1.95;;;;;;;2.80;100.00;99040.66;4990617;28;20058;-92
2021/12/03 04:44:45;;;;;;;4.57;1.85;;;;;;;2.79;100.00;99052.72;4992580;28;20060;-92
2021/12/03 04:47:12;;;;;;;4.22;1.70;;;;;;;2.90;100.00;99064.44;4995117;28;20046;-93
2021/12/03 04:49:39;;;;;;;5.18;1.95;;;;;;;2.63;100.00;99020.53;4994238;28;20078;-93
2021/12/03 04:52:06;;;;;;;10.02;2.80;;;;;;;2.50;100.00;99008.88;4990331;28;20059;-93
2021/12/03 04:54:34;;;;;;;6.20;2.33;;;;;;;2.20;100.00;98996.06;4993681;28;20061;-93
2021/12/03 04:57:00;;;;;;;4.68;2.05;;;;;;;2.26;100.00;99014.78;4993700;28;20056;-93
2021/12/03 04:59:27;;;;;;;5.97;2.15;;;;;;;2.42;100.00;99011.72;4990623;28;20054;-93
2021/12/03 05:01:57;;;;;;;5.63;1.98;;;;;;;2.36;100.00;99002.44;5004827;28;20046;-93
2021/12/03 05:04:25;;;;;;;5.85;2.28;;;;;;;2.46;100.00;99033.97;4993764;28;20104;-93
2021/12/03 05:09:51;;;;;;;3.90;1.67;;;;;;;2.50;100.00;99055.38;4974333;28;20050;-94
2021/12/03 05:12:18;;;;;;;4.22;1.92;;;;;;;2.12;100.00;99008.38;5007816;28;20085;-94
2021/12/03 05:14:45;;;;;;;4.13;1.83;;;;;;;2.24;100.00;99016.56;4993787;28;20042;-93
2021/12/03 05:17:11;;;;;;;7.50;2.30;;;;;;;2.37;100.00;99052.34;4993494;28;20052;-93
2021/12/03 05:19:38;;;;;;;4.60;1.83;;;;;;;2.32;100.00;99054.22;4990661;28;20133;-93
2021/12/03 05:22:06;;;;;;;4.40;1.77;;;;;;;2.54;100.00;99018.25;5006112;28;20058;-94
2021/12/03 05:24:33;;;;;;;4.30;1.33;;;;;;;2.92;100.00;99001.47;4993180;28;20046;-93
2021/12/03 05:26:59;;;;;;;1.92;1.20;;;;;;;3.61;100.00;99024.03;4993256;28;20053;-93
2021/12/03 05:29:26;;;;;;;4.00;1.23;;;;;;;3.71;100.00;98981.41;4992458;28;20054;-93
2021/12/03 05:31:53;;;;;;;2.08;1.20;;;;;;;3.66;100.00;98967.78;4996797;28;20043;-93
2021/12/03 05:34:28;;;;;;;3.60;1.20;;;;;;;3.93;100.00;98984.03;4992717;28;20089;-93
2021/12/03 05:36:55;;;;;;;1.73;1.13;;;;;;;4.08;100.00;98990.34;4984759;28;20049;-93
2021/12/03 05:39:22;;;;;;;3.92;1.30;;;;;;;4.08;100.00;98999.88;4984389;28;20077;-93
2021/12/03 05:41:49;;;;;;;4.25;1.13;;;;;;;4.11;100.00;99000.59;5008075;28;20050;-93
2021/12/03 05:44:16;;;;;;;1.98;1.00;;;;;;;4.34;100.00;99014.41;4996311;28;20061;-93
2021/12/03 05:46:43;;;;;;;4.53;1.20;;;;;;;3.96;100.00;98985.66;5002450;28;20058;-93
2021/12/03 05:49:11;;;;;;;1.70;1.00;;;;;;;4.34;100.00;99025.59;4982490;28;20496;-93
2021/12/03 05:51:38;;;;;;;4.88;1.17;;;;;;;4.25;100.00;98997.47;4983385;28;20051;-93
2021/12/03 05:54:05;;;;;;;2.10;1.20;;;;;;;4.64;100.00;99025.28;4992050;28;20046;-93
2021/12/03 05:56:31;;;;;;;1.85;1.20;;;;;;;4.56;100.00;99006.59;4991762;28;20129;-93
2021/12/03 05:58:59;;;;;;;3.63;1.20;;;;;;;4.51;100.00;98975.69;5002682;28;20109;-93
2021/12/03 06:01:26;;;;;;;2.08;1.10;;;;;;;4.69;100.00;99013.00;4991882;28;20074;-93
2021/12/03 06:03:54;;;;;;;3.78;1.20;;;;;;;4.79;100.00;99007.41;4987210;28;20078;-93
2021/12/03 06:06:21;;;;;;;2.35;0.95;;;;;;;4.82;100.00;99002.94;4990297;28;20046;-93
2021/12/03 06:08:48;;;;;;;3.53;1.10;;;;;;;4.62;100.00;98992.53;4987058;28;20133;-93
2021/12/03 06:11:15;;;;;;;2.13;1.20;;;;;;;4.57;100.00;98992.75;4986422;28;20393;-92
2021/12/03 06:13:42;;;;;;;3.70;1.55;;;;;;;4.68;100.00;98998.31;4988078;28;20054;-91
2021/12/03 06:16:11;;;;;;;1.95;1.00;;;;;;;4.74;100.00;99003.25;4991428;28;20412;-93
2021/12/03 06:18:39;;;;;;;3.10;1.13;;;;;;;4.99;100.00;99015.19;5001650;28;20058;-91
2021/12/03 06:21:11;;;;;;;2.58;1.20;;;;;;;4.75;100.00;98999.75;4990905;28;20043;-90
2021/12/03 06:23:39;;;;;;;3.38;1.50;;;;;;;4.80;100.00;99006.50;5000704;28;20057;-90
2021/12/03 06:26:07;;;;;;;2.72;1.30;;;;;;;4.85;100.00;99028.75;4994182;28;20053;-91
2021/12/03 06:28:35;;;;;;;2.00;1.10;;;;;;;4.88;100.00;99025.19;4987938;28;20420;-89
2021/12/03 06:31:03;;;;;;;1.88;1.00;;;;;;;4.82;100.00;99020.25;5004135;28;20050;-89
2021/12/03 06:33:30;;;;;;;1.20;1.00;;;;;;;4.80;100.00;99035.88;4996164;28;20081;-90
2021/12/03 06:35:58;;;;;;;2.70;1.10;;;;;;;4.73;100.00;99039.63;4991358;28;20057;-90
2021/12/03 06:38:26;;;;;;;3.97;1.60;;;;;;;4.69;100.00;99045.81;5003007;28;20051;-90
2021/12/03 06:40:53;;;;;;;3.95;1.40;;;;;;;4.80;100.00;99053.16;4993287;28;20066;-90
2021/12/03 06:43:21;;;;;;;3.22;2.33;;;;;;;4.77;100.00;99053.31;4990764;28;20053;-90
2021/12/03 06:45:49;;;;;;;2.95;1.30;;;;;;;4.75;100.00;99058.56;5000179;28;20046;-90
2021/12/03 06:48:16;;;;;;;3.72;1.48;;;;;;;4.61;100.00;99035.78;4984884;28;20047;-89
2021/12/03 06:50:45;;;;;;;3.85;1.10;;;;;;;4.55;100.00;99048.97;5001046;28;20046;-90
2021/12/03 06:53:14;;;;;;;5.32;1.35;;;;;;;4.55;100.00;99055.00;5004356;28;20495;-90
2021/12/03 06:55:52;;;;;;;3.15;1.23;;;;;;;4.56;100.00;99050.66;4984060;28;20046;-91
2021/12/03 06:58:20;;;;;;;5.88;1.20;;;;;;;4.64;100.00;99059.00;4985999;28;20046;-90
2021/12/03 07:00:51;;;;;;;3.42;1.30;;;;;;;4.72;100.00;99063.84;4992593;28;20533;-90
2021/12/03 07:03:19;;;;;;;3.17;1.30;;;;;;;4.52;100.00;99052.53;4991381;28;20085;-92
2021/12/03 07:05:46;;;;;;;7.03;1.55;;;;;;;4.56;100.00;99042.91;4992428;28;20057;-92
2021/12/03 07:08:13;;;;;;;3.10;1.13;;;;;;;4.66;100.00;99041.63;5000911;28;20050;-92
2021/12/03 07:10:41;;;;;;;4.47;1.40;;;;;;;4.64;100.00;99037.38;5006023;28;20056;-92
2021/12/03 07:13:08;;;;;;;2.95;1.20;;;;;;;4.57;100.00;99029.88;4994194;28;20049;-93
2021/12/03 07:15:35;;;;;;;3.65;1.40;;;;;;;4.76;100.00;99065.41;4992324;28;20049;-93
2021/12/03 07:18:02;;;;;;;5.60;1.63;;;;;;;4.39;100.00;99040.94;5002727;28;20048;-93
2021/12/03 07:20:30;;;;;;;4.22;1.52;;;;;;;4.71;100.00;99070.81;4991564;28;21108;-94
2021/12/03 07:22:57;;;;;;;5.15;1.40;;;;;;;4.65;100.00;99072.78;4992055;28;20483;-92
2021/12/03 07:25:24;;;;;;;2.00;1.10;;;;;;;4.61;100.00;99092.81;4988568;28;20057;-92
2021/12/03 07:27:51;;;;;;;5.30;1.67;;;;;;;4.60;100.00;99091.09;4986082;28;20141;-93
2021/12/03 07:30:19;;;;;;;4.05;1.35;;;;;;;4.38;100.00;99065.19;4991564;28;20054;-93
2021/12/03 07:32:47;;;;;;;4.88;1.58;;;;;;;4.45;100.00;99081.38;4990887;28;20050;-93
2021/12/03 07:35:14;;;;;;;4.90;1.33;;;;;;;4.44;100.00;99087.44;4991742;28;20137;-94
2021/12/03 07:37:43;;;;;;;3.60;1.23;;;;;;;4.38;100.00;99060.84;4989360;28;20046;-93
2021/12/03 07:40:12;;;;;;;2.95;1.17;;;;;;;4.17;100.00;99039.19;5008110;28;20488;-93
2021/12/03 07:42:39;;;;;;;4.82;1.45;;;;;;;4.25;100.00;99069.16;4993737;28;20058;-93
2021/12/03 07:45:09;;;;;;;3.60;1.30;;;;;;;4.20;100.00;99056.41;4992400;28;20046;-94
2021/12/03 07:47:37;;;;;;;8.25;1.50;;;;;;;4.25;100.00;99067.44;5008612;28;20049;-93
2021/12/03 07:50:07;;;;;;;2.67;1.23;;;;;;;4.23;100.00;99070.97;4987760;28;20050;-94
2021/12/03 07:52:34;;;;;;;4.50;1.60;;;;;;;4.11;100.00;99021.31;4995418;28;20054;-92
2021/12/03 07:55:02;;;;;;;5.82;1.42;;;;;;;3.98;100.00;99022.69;4995990;28;20497;-93
2021/12/03 07:57:29;;;;;;;5.90;2.13;;;;;;;4.35;100.00;99054.94;4996664;28;20066;-93
2021/12/03 07:59:56;;;;;;;4.20;1.30;;;;;;;4.64;100.00;99076.28;4995136;28;20056;-93
2021/12/03 08:02:24;;;;;;;4.18;1.30;;;;;;;4.49;100.00;99065.59;4991481;28;20054;-93
2021/12/03 08:04:51;;;;;;;4.82;1.70;;;;;;;4.47;100.00;99040.66;4995450;28;20125;-88
2021/12/03 08:07:18;;;;;;;2.85;1.30;;;;;;;4.64;100.00;99069.38;4993811;28;20389;-91
2021/12/03 08:09:45;;;;;;;8.80;2.00;;;;;;;4.50;100.00;99063.88;4993465;28;20054;-93
2021/12/03 08:12:12;;;;;;;5.68;1.52;;;;;;;4.39;100.00;99028.00;4992724;28;20061;-94
2021/12/03 08:14:39;;;;;;;6.88;1.40;;;;;;;4.37;100.00;99043.63;4993938;28;20397;-93
2021/12/03 08:17:06;;;;;;;3.90;1.20;;;;;;;4.40;100.00;99034.03;4994009;28;20060;-93
2021/12/03 08:19:33;;;;;;;4.15;1.30;;;;;;;4.43;100.00;99054.66;4992616;28;20062;-93
2021/12/03 08:21:59;;;;;;;3.65;1.40;;;;;;;4.59;100.00;99070.47;4993029;28;20138;-93
2021/12/03 08:24:26;;;;;;;3.40;1.25;;;;;;;4.67;100.00;99066.63;4994105;28;20058;-93
2021/12/03 08:26:53;;;;;;;8.07;1.30;;;;;;;4.69;100.00;99063.97;4993770;28;20055;-92
2021/12/03 08:29:20;;;;;;;5.32;1.40;;;;;;;4.75;100.00;99068.94;4993469;28;20046;-94
2021/12/03 08:31:47;;;;;;;4.35;1.40;;;;;;;4.76;100.00;99060.22;4979441;28;20689;-94
2021/12/03 08:34:13;;;;;;;6.68;1.48;;;;;;;4.16;100.00;98985.72;4987016;28;20050;-94
2021/12/03 08:36:41;;;;;;;3.95;1.40;;;;;;;4.65;100.00;99052.88;4993805;28;20054;-94
2021/12/03 08:39:07;;;;;;;4.65;1.80;;;;;;;4.64;100.00;99039.97;4994784;28;20066;-94
2021/12/03 08:41:35;;;;;;;4.40;1.35;;;;;;;4.52;100.00;99028.38;4982591;28;20109;-93
2021/12/03 08:44:04;;;;;;;5.25;1.52;;;;;;;4.75;100.00;99041.25;4973596;28;20061;-92
2021/12/03 08:46:36;;;;;;;6.97;1.58;;;;;;;4.79;100.00;99052.34;4974057;28;20130;-94
2021/12/03 08:49:11;;;;;;;6.73;1.40;;;;;;;5.00;100.00;99049.78;4981441;28;20138;-93
2021/12/03 08:56:54;;;;;;;3.80;1.38;;;;;;;5.42;100.00;99077.38;4985726;28;20054;-93
2021/12/03 08:59:21;;;;;;;3.78;1.08;;;;;;;5.08;100.00;99024.34;4979453;28;20047;-93
2021/12/03 09:01:48;;;;;;;7.53;2.75;;;;;;;5.23;100.00;99059.19;4990120;28;20408;-93
2021/12/03 09:04:16;;;;;;;5.75;2.00;;;;;;;5.14;100.00;99044.84;4993839;28;20073;-92
2021/12/03 09:06:43;;;;;;;3.22;1.20;;;;;;;5.01;100.00;99031.56;4992840;28;20050;-93
2021/12/03 09:09:10;;;;;;;3.40;1.48;;;;;;;5.19;100.00;99048.09;4992576;28;20510;-93
2021/12/03 09:11:38;;;;;;;6.57;1.20;;;;;;;5.24;100.00;99068.63;4992057;28;20480;-94
2021/12/03 09:14:24;;;;;;;4.25;1.30;;;;;;;5.23;100.00;99059.19;4992280;28;20054;-94
2021/12/03 09:16:59;;;;;;;2.17;1.30;;;;;;;5.46;100.00;99082.38;4992343;28;20047;-94
2021/12/03 09:19:40;;;;;;;5.18;1.45;;;;;;;5.40;100.00;99061.03;4992576;28;20054;-93
2021/12/03 09:22:10;;;;;;;6.25;1.30;;;;;;;5.28;100.00;99065.84;4992533;28;20054;-94
2021/12/03 09:24:38;;;;;;;6.10;1.30;;;;;;;5.34;100.00;99051.78;4992032;28;20133;-93
2021/12/03 09:27:05;;;;;;;4.07;1.20;;;;;;;5.44;100.00;99080.78;4992429;28;20071;-93
2021/12/03 09:29:34;;;;;;;4.95;1.30;;;;;;;5.30;100.00;99058.84;4984470;28;20061;-93
2021/12/03 09:32:01;;;;;;;3.17;1.20;;;;;;;5.39;100.00;99057.59;4991289;28;20054;-93
2021/12/03 09:34:32;;;;;;;4.72;1.40;;;;;;;5.21;100.00;99035.06;4992540;28;20050;-93
2021/12/03 09:36:59;;;;;;;7.00;1.77;;;;;;;5.58;100.00;99082.75;4992196;28;20053;-92
2021/12/03 09:39:26;;;;;;;4.07;1.38;;;;;;;5.73;100.00;99079.50;4989991;28;20046;-93
2021/12/03 09:41:55;;;;;;;6.53;1.50;;;;;;;5.45;100.00;99064.28;4991595;28;20054;-92
2021/12/03 09:44:23;;;;;;;4.60;1.20;;;;;;;5.46;100.00;99045.22;4991612;28;20481;-93
2021/12/03 09:46:51;;;;;;;4.05;1.30;;;;;;;5.67;100.00;99069.41;4991816;28;20054;-92
2021/12/03 09:56:50;;;;;;;4.68;1.40;;;;;;;5.51;100.00;99046.69;4998319;28;20133;-92
2021/12/03 09:59:45;;;;;;;10.82;1.60;;;;;;;5.89;100.00;99084.84;4997397;28;20050;-92
2021/12/03 10:14:03;;;;;;;3.65;1.30;;;;;;;5.70;100.00;99040.69;4993451;28;20068;-93
2021/12/03 10:18:48;;;;;;;5.15;1.30;;;;;;;6.04;100.00;99060.81;4997972;28;20101;-93
2021/12/03 10:24:52;;;;;;;3.03;1.30;;;;;;;6.34;100.00;99085.44;4997764;28;20088;-92
2021/12/03 10:41:23;;;;;;;5.60;1.30;;;;;;;6.21;100.00;99046.19;4997720;28;20104;-92
2021/12/03 11:38:28;;;;;;;3.80;1.55;;;;;;;7.12;100.00;99008.84;4996432;28;20053;-93
2021/12/03 11:47:26;;;;;;;2.30;1.02;;;;;;;7.18;100.00;99026.72;4996044;28;20050;-89
2021/12/03 11:53:54;;;;;;;2.85;1.25;;;;;;;7.28;100.00;99034.06;4995226;28;20408;-89
2021/12/03 12:36:46;;;;;;;3.53;1.35;;;;;;;7.78;100.00;98987.13;4978878;28;20055;-90
2021/12/03 12:59:26;;;;;;;2.00;1.00;;;;;;;7.91;100.00;98996.91;4993649;28;20538;-90
2021/12/03 14:36:36;;;;;;;9.20;3.30;;;;;;;6.08;100.00;98986.16;4994297;28;20128;-94
2021/12/03 14:52:12;;;;;;;10.20;3.70;;;;;;;5.78;100.00;98971.06;4996115;28;20050;-91
2021/12/03 14:57:57;;;;;;;7.47;2.50;;;;;;;5.95;100.00;98993.69;4996645;28;20492;-92
2021/12/03 15:03:02;;;;;;;8.13;2.78;;;;;;;5.97;100.00;98989.28;4979664;28;20046;-92
2021/12/03 15:08:13;;;;;;;5.60;1.90;;;;;;;5.68;100.00;98943.81;4996612;28;20104;-92
2021/12/03 15:13:28;;;;;;;5.82;2.30;;;;;;;5.89;100.00;99002.56;4997108;28;20061;-93
2021/12/03 15:34:02;;;;;;;8.15;2.40;;;;;;;5.62;100.00;98972.69;5012804;28;20081;-91
2021/12/03 16:04:27;;;;;;;18.13;5.88;;;;;;;4.69;100.00;98935.22;5011444;28;20050;-92
2021/12/03 16:10:13;;;;;;;12.98;4.72;;;;;;;4.65;100.00;98919.84;5011038;28;20054;-92
2021/12/03 16:43:53;;;;;;;16.27;6.82;;;;;;;3.88;100.00;98957.47;5013159;28;20061;-92
2021/12/03 16:52:05;;;;;;;15.20;7.00;;;;;;;3.77;100.00;98949.25;5006542;28;20089;-91
2021/12/03 16:54:52;;;;;;;20.65;8.57;;;;;;;3.85;100.00;98939.44;5011297;28;20046;-95
2021/12/03 16:57:35;;;;;;;18.05;8.93;;;;;;;3.80;100.00;98920.66;5007554;28;20062;-92
2021/12/03 17:00:23;;;;;;;17.80;9.48;;;;;;;3.77;100.00;98939.75;5009590;28;20050;-90
2021/12/03 17:03:09;;;;;;;17.05;7.35;;;;;;;3.65;100.00;98903.13;5010743;28;20126;-90
2021/12/03 17:14:35;;;;;;;14.00;5.32;;;;;;;3.79;100.00;98935.38;5007540;28;20419;-93
2021/12/03 17:58:50;;;;;;;53.08;22.02;;;;;;;3.69;100.00;98865.91;5009027;28;20055;-92
2021/12/03 18:01:29;;;;;;;32.60;14.88;;;;;;;3.57;100.00;98862.88;5006570;28;20042;-93
2021/12/03 18:04:19;;;;;;;29.75;13.85;;;;;;;3.53;100.00;98847.53;4998651;28;20053;-91
2021/12/03 18:07:08;;;;;;;28.40;13.15;;;;;;;3.57;100.00;98842.16;5010932;28;20058;-92
2021/12/03 18:56:19;;;;;;;8.73;3.33;;;;;;;4.88;100.00;98809.94;4989404;28;20077;-89
2021/12/03 18:58:52;;;;;;;11.18;3.88;;;;;;;5.03;100.00;98804.06;4988622;28;20048;-88
2021/12/03 19:01:22;;;;;;;8.73;3.40;;;;;;;5.01;100.00;98792.91;4990831;28;20057;-88
2021/12/03 19:04:00;;;;;;;11.10;4.00;;;;;;;4.61;100.00;98723.88;4991784;28;20399;-89
2021/12/03 19:06:35;;;;;;;9.52;2.83;;;;;;;4.76;100.00;98728.34;4999876;28;20556;-88
2021/12/03 19:09:06;;;;;;;10.23;3.85;;;;;;;5.11;100.00;98801.94;4999145;28;20042;-89
2021/12/03 19:14:06;;;;;;;9.07;3.28;;;;;;;5.02;100.00;98788.56;5000763;28;20109;-88
2021/12/03 19:16:35;;;;;;;6.47;2.85;;;;;;;5.30;100.00;98781.16;5000377;28;20117;-89
2021/12/03 19:19:04;;;;;;;11.20;3.22;;;;;;;5.22;100.00;98787.63;4999427;28;20141;-88
2021/12/03 19:21:43;;;;;;;9.98;2.95;;;;;;;5.41;100.00;98753.88;4998069;28;20084;-90
2021/12/03 19:24:12;;;;;;;6.82;2.65;;;;;;;5.79;100.00;98774.53;4998590;28;20083;-89
2021/12/03 19:26:44;;;;;;;8.50;3.67;;;;;;;5.77;100.00;98771.16;5014650;28;20077;-89
2021/12/03 19:29:15;;;;;;;5.93;2.30;;;;;;;5.94;100.00;98759.94;5003141;28;20459;-89
2021/12/03 19:31:50;;;;;;;7.18;2.50;;;;;;;5.97;100.00;98770.22;5001179;28;20077;-89
2021/12/03 19:34:21;;;;;;;9.85;2.85;;;;;;;6.13;100.00;98775.50;4998085;28;20081;-89
2021/12/03 19:37:02;;;;;;;11.52;4.80;;;;;;;5.62;100.00;98780.56;4990407;28;20073;-90